AirNav   Duncan Aviation - Near you to keep you flying
 
 1806 users online  

05LL Midwest Memorial Heliport
Willowbrook, Illinois, USA

GOING TO WILLOWBROOK?


FAA INFORMATION EFFECTIVE 27 JANUARY 2022

Location

FAA Identifier: 05LL
Lat/Long: 41-44-56.1120N 087-56-06.2120W
41-44.935200N 087-56.103533W
41.7489200,-87.9350589
(estimated)
Elevation: 710 ft. / 216 m (estimated)
Variation: 01W (1985)
From city: 1 mile N of WILLOWBROOK, IL
Time zone: UTC -6 (UTC -5 during Daylight Saving Time)
Zip code: 60521

Heliport Operations

Heliport use: Private use. Permission required prior to landing
Activation date: 12/1976
Control tower: no
ARTCC: CHICAGO CENTER
FSS: KANKAKEE FLIGHT SERVICE STATION
Attendance: UNATNDD
Wind indicator: yes
Segmented circle: yes

Heliport Communications

WX ASOS at MDW (8 nm E): PHONE 773-884-4424
WX AWOS-3 at LOT (11 nm SW): 118.525 (815-588-4802)
WX ASOS at ORD (14 nm N): PHONE 773-462-0118
WX AWOS-3 at 06C (16 nm NW): 128.275 ((847) 895-2887)
WX ASOS at DPA (17 nm NW): PHONE 630-587-3668
WX AWOS-3 at JOT (18 nm SW): 119.975 (815-730-9560)

Nearby radio navigation aids

VOR radial/distance  VOR name  Freq  Var
DPAr113/20.4DUPAGE VOR/DME108.4002E
JOTr053/21.0JOLIET VOR/DME112.3002E
CGTr309/21.7CHICAGO HEIGHTS VORTAC114.2002E
OBKr181/28.4NORTHBROOK VOR/DME113.0002W
EONr345/29.5PEOTONE VORTAC113.2002E

Heliport Services

Runway Information

Helipad H1

Dimensions: 120 x 120 ft. / 37 x 37 m
HELIPAD IS CIRCULAR.
Surface: asphalt
Latitude: 41-44.935200N
Longitude: 087-56.103533W
Elevation: 710.0 ft.
Traffic pattern: leftleft

Heliport Ownership and Management from official FAA records

Ownership: Privately-owned
Owner: MIDWEST HEL AIRWAYS, INC
525 EXECUTIVE DR
WILLOWBROOK, IL 60527
Phone 630-325-7860
Manager: RICHARD J. SMITH
525 EXECUTIVE DR
WILLOWBROOK, IL 60527
Phone 630-325-7860

Heliport Operational Statistics

Aircraft based on the field: 5
Helicopters: 5
    

Additional Remarks

FOR CD CTC CHICAGO APCH AT 847-289-0926.

Instrument Procedures

There are no published instrument procedures at 05LL.

Some nearby airports with instrument procedures:

KMDW - Chicago Midway International Airport (8 nm E)
1C5 - Bolingbrook's Clow International Airport (9 nm W)
KLOT - Lewis University Airport (11 nm SW)
KORD - Chicago O'Hare International Airport (14 nm N)
KDPA - DuPage Airport (17 nm NW)
 
Loc | Ops | Rwys | IFR | FBO | Links
Com | Nav | Svcs | Stats | Notes
Area around 05LL (Midwest Memorial Heliport)
 
Road maps at: MapQuest Bing Google
 
Aerial photo
No photo
 
Sectional chart

 
Airport distance calculator
Flying to Midwest Memorial Heliport? Find the distance to fly.

From to 05LL

Sunrise and sunset
Times for 28-Jan-2022
 Local
(UTC-6)
 Zulu
(UTC)
Morning civil twilight06:3912:39
Sunrise07:0913:09
Sunset17:0123:01
Evening civil twilight17:3023:30

Current date and time
Zulu (UTC)  28-Jan-2022 22:16:23
Local (UTC-6)  28-Jan-2022 16:16:23
 
METAR
KMDW 
9nm E 
282153Z 31007KT 10SM FEW030 FEW250 M04/M12 A3029 RMK AO2 SLP274 T10391122
KORD 
14nm N 
282151Z 33005KT 10SM CLR M06/M14 A3028 RMK AO2 SLP266 T10561139
K06C 
16nm NW 
282155Z AUTO 31005KT A3029 RMK AO2 PNO
KDPA 
17nm NW 
282152Z AUTO 29008KT 10SM CLR M08/M15 A3030 RMK AO2 SLP273 T10781150 TSNO
KJOT 
17nm SW 
282155Z AUTO 32007KT 10SM BKN044 M07/M13 A3033 RMK AO2 T10701135
TAF
KMDW 
9nm E 
281738Z 2818/2924 34008KT 4SM -SHSN BKN025 TEMPO 2818/2820 1 1/2SM -SHSN BKN015 FM282200 31007KT P6SM SCT030 FM290600 26006KT P6SM FEW200 FM291800 20010KT P6SM BKN200
KORD 
14nm N 
281926Z 2819/2924 31007KT P6SM FEW030 FM290600 26006KT P6SM SCT080 FM291800 20010KT P6SM BKN200
KDPA 
17nm NW 
281738Z 2818/2918 34007KT P6SM -SHSN BKN040 FM281900 32007KT P6SM SCT030 FM290600 26006KT P6SM FEW200
NOTAMs
Click for the latest NOTAMs
NOTAMs are issued by the DoD/FAA and will open in a separate window not controlled by AirNav.

 

 
 

Would you like to see your business listed on this page?

 If your business provides an interesting product or service to pilots, flight crews, aircraft, or users of the Midwest Memorial Heliport, you should consider listing it here.  To start the listing process, click on the button below
 
Add a business
 

Other Pages about Midwest Memorial Heliport

Update a link
 
Copyright © AirNav, LLC. All rights reserved. Privacy Policy  Contact